Impacts METAR Board
IDs:

KLAX - Los Angeles Intl, CA, US

Updated at: 2200 UTC 01 Feb 2023
Potential Impact None Slight Moderate High
Time 01/10Z 01/11Z 01/12Z 01/13Z 01/14Z 01/15Z 01/16Z 01/17Z 01/18Z 01/19Z 01/20Z 01/21Z 01/22Z
Temp43 43 44 45 41 46 48 56 60 62 64 64 64
Dewpt35 34 30 28 30 25 27 30 25 23 25 27 29
Altim30.12 30.11 30.10 30.10 30.12 30.14 30.15 30.16 30.18 30.17 30.15 30.13 30.12
VIS10 10 10 10 10 10 10 10 10 10 10 10 10
CIG-- -- -- -- -- -- -- -- -- -- -- -- --
CoverCLRCLRCLRCLRFEWFEWCLRCLRCLRCLRFEWFEWFEW
FltCatVFRVFRVFRVFRVFRVFRVFRVFRVFRVFRVFRVFRVFR
WX--------------------------
WDir120807040900000140220250250
WSpd4 3 3 3 3 0 0 0 3 4 7 8 10
WGst-- -- -- -- -- -- -- -- -- -- -- -- --
Raw hourly METARs
KLAX 010953Z 12004KT 10SM CLR 06/02 A3012 RMK AO2 SLP196 T00610017 $
KLAX 011053Z 08003KT 10SM CLR 06/01 A3011 RMK AO2 SLP195 T00610011 $
KLAX 011153Z 07003KT 10SM CLR 07/M01 A3010 RMK AO2 SLP191 T00671011 10122 20056 58004 $
KLAX 011253Z 04003KT 10SM CLR 07/M02 A3010 RMK AO2 SLP190 T00721022 $
KLAX 011353Z 09003KT 10SM FEW200 05/M01 A3012 RMK AO2 SLP198 T00501011 $
KLAX 011453Z 00000KT 10SM FEW200 08/M04 A3014 RMK AO2 SLP203 T00781039 53012 $
KLAX 011553Z 00000KT 10SM CLR 09/M03 A3015 RMK AO2 SLP207 T00891028 $
KLAX 011653Z 00000KT 10SM CLR 13/M01 A3016 RMK AO2 SLP213 T01331011 $
KLAX 011753Z VRB03KT 10SM CLR 16/M04 A3018 RMK AO2 SLP218 T01561039 10156 20050 53015 $
KLAX 011853Z 14004KT 10SM CLR 17/M05 A3017 RMK AO2 SLP216 T01671050 $
KLAX 011953Z 22007KT 10SM FEW180 18/M04 A3015 RMK AO2 SLP208 T01781039 $
KLAX 012053Z 25008KT 10SM FEW160 FEW190 18/M03 A3013 RMK AO2 SLP201 T01781028 58016 $
KLAX 012153Z 25010KT 10SM FEW140 FEW180 18/M02 A3012 RMK AO2 SLP199 T01781017 $



Page loaded:  22:36 UTC  |   02:36 PM Pacific  |   03:36 PM Mountain  |   04:36 PM Central  |   05:36 PM Eastern

 

ADVISORIES

FORECASTS

FORECASTS

OBSERVATIONS

USER TOOLS

ABOUT US